Time;durP1;ratioP1;P1;durP2;ratioP2;P2;SDS_P1;SDS_P2;PMS_P1;PMS_P2;Temp;Humidity;BMP_temperature;BMP_pressure;BME280_temperature;BME280_humidity;BME280_pressure;Samples;Min_cycle;Max_cycle;Signal;HPM_P1;HPM_P2
2021/11/24 00:02:42;;;;;;;6.90;6.40;;;3.20;99.90;;;;;;10453536;28;20221;-82
2021/11/24 00:07:45;;;;;;;6.97;6.17;;;3.20;99.90;;;;;;10491167;28;20280;-82
2021/11/24 00:12:48;;;;;;;6.93;6.33;;;3.20;99.90;;;;;;10447485;28;20311;-82
2021/11/24 00:17:50;;;;;;;6.70;6.07;;;3.20;99.90;;;;;;10480188;28;20231;-82
2021/11/24 00:22:53;;;;;;;7.43;6.83;;;3.20;99.90;;;;;;10445624;28;20240;-82
2021/11/24 00:27:56;;;;;;;7.73;7.03;;;3.20;99.90;;;;;;10478506;28;20206;-82
2021/11/24 00:32:58;;;;;;;7.63;6.93;;;3.20;99.90;;;;;;10482208;28;20315;-82
2021/11/24 00:38:01;;;;;;;7.40;6.70;;;3.10;99.90;;;;;;10482627;28;20220;-82
2021/11/24 00:43:03;;;;;;;7.33;6.20;;;3.10;99.90;;;;;;10471018;28;20311;-82
2021/11/24 00:48:06;;;;;;;7.43;6.73;;;3.10;99.90;;;;;;10462590;28;20207;-82
2021/11/24 00:53:10;;;;;;;20.17;12.30;;;3.20;99.90;;;;;;10462023;28;20708;-82
2021/11/24 00:58:12;;;;;;;44.27;23.07;;;3.10;99.90;;;;;;10478212;28;20215;-82
2021/11/24 01:03:14;;;;;;;99.70;54.70;;;3.10;99.90;;;;;;10444849;28;20629;-82
2021/11/24 01:08:18;;;;;;;8.20;7.40;;;3.10;99.90;;;;;;10487746;28;20218;-82
2021/11/24 01:13:20;;;;;;;23.60;19.03;;;3.10;99.90;;;;;;10488207;28;20692;-82
2021/11/24 01:18:23;;;;;;;8.97;8.00;;;3.10;99.90;;;;;;10462444;28;20271;-82
2021/11/24 01:23:26;;;;;;;14.50;10.77;;;3.10;99.90;;;;;;10454197;28;20225;-82
2021/11/24 01:28:28;;;;;;;9.23;8.33;;;3.00;99.90;;;;;;10472361;28;20205;-82
2021/11/24 01:33:31;;;;;;;8.77;7.97;;;3.00;99.90;;;;;;10473793;28;20232;-82
2021/11/24 01:38:34;;;;;;;9.57;8.77;;;3.00;99.90;;;;;;10449957;28;20198;-82
2021/11/24 01:43:36;;;;;;;8.87;8.00;;;3.00;99.90;;;;;;10459146;28;20740;-82
2021/11/24 01:48:38;;;;;;;9.67;8.77;;;3.00;99.90;;;;;;10461008;28;20282;-81
2021/11/24 01:53:42;;;;;;;9.30;8.30;;;3.00;99.90;;;;;;10442948;28;20244;-82
2021/11/24 01:58:45;;;;;;;9.47;8.47;;;2.90;99.90;;;;;;10440521;28;20205;-82
2021/11/24 02:03:47;;;;;;;8.90;8.00;;;2.90;99.90;;;;;;10421882;28;20287;-82
2021/11/24 02:08:51;;;;;;;8.93;8.20;;;2.90;99.90;;;;;;10444732;28;20217;-82
2021/11/24 02:13:53;;;;;;;9.23;8.33;;;2.80;99.90;;;;;;10460974;28;20209;-82
2021/11/24 02:18:56;;;;;;;8.83;7.97;;;2.80;99.90;;;;;;10440816;28;20216;-82
2021/11/24 02:23:59;;;;;;;9.73;8.80;;;2.80;99.90;;;;;;10437680;28;20210;-81
2021/11/24 02:29:03;;;;;;;9.03;8.20;;;2.70;99.90;;;;;;10422174;28;20570;-82
2021/11/24 02:34:06;;;;;;;9.67;8.77;;;2.80;99.90;;;;;;10438256;28;20225;-82
2021/11/24 02:39:10;;;;;;;9.63;8.77;;;2.80;99.90;;;;;;10438627;28;20236;-82
2021/11/24 02:44:18;;;;;;;9.83;8.97;;;2.70;99.90;;;;;;10435323;28;20288;-81
2021/11/24 02:49:20;;;;;;;9.90;8.90;;;2.80;99.90;;;;;;10459091;28;20225;-82
2021/11/24 02:54:24;;;;;;;8.10;7.40;;;2.80;99.90;;;;;;10434725;28;20279;-81
2021/11/24 02:59:26;;;;;;;8.87;8.07;;;2.80;99.90;;;;;;10432646;28;20236;-81
2021/11/24 03:04:29;;;;;;;9.33;8.43;;;2.80;99.90;;;;;;10431302;28;20277;-81
2021/11/24 03:09:32;;;;;;;8.80;8.03;;;2.80;99.90;;;;;;10442655;28;20259;-82
2021/11/24 03:14:34;;;;;;;8.53;7.83;;;2.80;99.90;;;;;;10454072;28;20699;-82
2021/11/24 03:19:36;;;;;;;10.07;8.47;;;2.80;99.90;;;;;;10437790;28;20248;-81
2021/11/24 03:24:40;;;;;;;9.27;8.30;;;2.70;99.90;;;;;;10454842;28;20285;-81
2021/11/24 03:29:42;;;;;;;8.37;7.67;;;2.80;99.90;;;;;;10438474;28;20244;-81
2021/11/24 03:34:44;;;;;;;7.80;7.20;;;2.70;99.90;;;;;;10456913;28;20217;-81
2021/11/24 03:39:49;;;;;;;9.17;8.30;;;2.80;99.90;;;;;;10451172;28;20229;-81
2021/11/24 03:44:51;;;;;;;9.60;8.73;;;2.90;99.90;;;;;;10448426;28;20677;-81
2021/11/24 03:49:53;;;;;;;9.40;8.57;;;2.90;99.90;;;;;;10437705;28;20231;-82
2021/11/24 03:54:57;;;;;;;9.70;8.70;;;2.90;99.90;;;;;;10421420;28;20221;-82
2021/11/24 03:59:59;;;;;;;8.43;7.67;;;3.00;99.90;;;;;;10438732;28;20225;-81
2021/11/24 04:05:01;;;;;;;9.73;8.93;;;3.00;99.90;;;;;;10428172;28;20613;-81
2021/11/24 04:10:06;;;;;;;9.07;8.23;;;3.00;99.90;;;;;;10451497;28;20713;-81
2021/11/24 04:15:09;;;;;;;9.70;8.80;;;3.00;99.90;;;;;;10443243;28;20205;-81
2021/11/24 04:20:14;;;;;;;10.10;9.10;;;2.90;99.90;;;;;;10419176;28;20271;-81
2021/11/24 04:25:19;;;;;;;9.50;8.70;;;2.90;99.90;;;;;;10433116;28;20208;-81
2021/11/24 04:30:21;;;;;;;11.03;9.40;;;2.80;99.90;;;;;;10448605;28;20221;-81
2021/11/24 04:35:23;;;;;;;9.80;9.00;;;2.70;99.90;;;;;;10429130;28;20228;-81
2021/11/24 04:40:27;;;;;;;9.33;8.53;;;2.70;99.90;;;;;;10452173;28;20233;-81
2021/11/24 04:45:29;;;;;;;9.23;8.33;;;2.70;99.90;;;;;;10466357;28;20206;-81
2021/11/24 04:50:32;;;;;;;10.27;9.33;;;2.60;99.90;;;;;;10448621;28;20239;-81
2021/11/24 04:55:35;;;;;;;10.30;9.40;;;2.60;99.90;;;;;;10442784;28;20245;-81
2021/11/24 05:00:38;;;;;;;9.90;8.90;;;2.60;99.90;;;;;;10444959;28;20221;-81
2021/11/24 05:05:40;;;;;;;9.73;8.77;;;2.50;99.90;;;;;;10418059;28;20259;-81
2021/11/24 05:10:43;;;;;;;10.07;9.10;;;2.50;99.90;;;;;;10443929;28;20233;-81
2021/11/24 05:15:46;;;;;;;10.50;9.60;;;2.40;99.90;;;;;;10437601;28;20205;-81
2021/11/24 05:20:49;;;;;;;10.27;9.27;;;2.40;99.50;;;;;;10438877;28;20602;-81
2021/11/24 05:25:52;;;;;;;10.30;9.27;;;2.40;99.90;;;;;;10463473;28;20676;-81
2021/11/24 05:30:54;;;;;;;11.40;10.37;;;2.30;99.90;;;;;;10436323;28;20229;-81
2021/11/24 05:35:56;;;;;;;10.57;9.50;;;2.30;99.90;;;;;;10433638;28;20227;-80
2021/11/24 05:41:00;;;;;;;9.97;9.17;;;2.40;99.90;;;;;;10429901;28;20221;-81
2021/11/24 05:46:13;;;;;;;12.50;11.23;;;2.40;99.90;;;;;;10447465;28;20689;-81
2021/11/24 05:51:15;;;;;;;12.10;10.90;;;2.30;99.90;;;;;;10444609;28;20228;-81
2021/11/24 05:56:19;;;;;;;13.20;10.50;;;2.30;99.90;;;;;;10442758;28;20217;-82
2021/11/24 06:01:22;;;;;;;11.47;10.27;;;2.30;99.90;;;;;;10443947;28;20229;-81
2021/11/24 06:06:25;;;;;;;10.63;9.60;;;2.30;99.90;;;;;;10456680;28;20212;-82
2021/11/24 06:11:28;;;;;;;11.73;10.63;;;2.30;99.90;;;;;;10467039;28;20217;-81
2021/11/24 06:16:30;;;;;;;12.67;11.47;;;2.30;99.90;;;;;;10448843;28;20352;-81
2021/11/24 06:21:32;;;;;;;11.10;10.10;;;2.30;99.60;;;;;;10466002;22;20303;-83
2021/11/24 06:26:36;;;;;;;13.03;11.73;;;2.20;99.90;;;;;;10457966;28;20237;-84
2021/11/24 06:31:38;;;;;;;12.80;11.60;;;2.10;99.90;;;;;;10467916;28;20756;-81
2021/11/24 06:36:40;;;;;;;14.07;12.07;;;2.10;99.90;;;;;;10442168;28;20228;-84
2021/11/24 06:41:43;;;;;;;15.60;13.97;;;2.20;99.90;;;;;;10443609;28;20661;-82
2021/11/24 06:46:46;;;;;;;16.60;14.30;;;2.30;99.90;;;;;;10445217;28;20233;-84
2021/11/24 06:51:48;;;;;;;15.10;13.37;;;2.20;99.90;;;;;;10443928;28;20648;-84
2021/11/24 06:56:51;;;;;;;14.90;13.50;;;2.20;99.90;;;;;;10457481;28;20237;-83
2021/11/24 07:01:53;;;;;;;14.20;12.90;;;2.20;99.90;;;;;;10459894;28;20261;-83
2021/11/24 07:06:55;;;;;;;14.00;12.70;;;2.20;99.90;;;;;;10458459;28;20266;-82
2021/11/24 07:11:59;;;;;;;12.50;11.40;;;2.20;99.60;;;;;;10458807;28;20221;-83
2021/11/24 07:17:03;;;;;;;12.70;11.53;;;2.20;99.90;;;;;;10442025;28;20316;-83
2021/11/24 07:22:05;;;;;;;13.00;11.70;;;2.20;99.90;;;;;;10443288;28;20709;-83
2021/11/24 07:27:09;;;;;;;11.93;10.83;;;2.20;99.90;;;;;;10459919;28;20580;-83
2021/11/24 07:32:11;;;;;;;13.40;12.10;;;2.30;99.90;;;;;;10461038;28;20256;-83
2021/11/24 07:37:13;;;;;;;12.10;10.90;;;2.30;99.70;;;;;;10470640;28;20237;-83
2021/11/24 07:42:16;;;;;;;12.80;11.60;;;2.30;99.60;;;;;;10451992;28;20244;-82
2021/11/24 07:47:19;;;;;;;13.17;11.80;;;2.30;99.80;;;;;;10487686;28;20208;-82
2021/11/24 07:52:21;;;;;;;13.50;12.20;;;2.40;99.90;;;;;;10446919;28;20665;-82
2021/11/24 07:57:24;;;;;;;15.80;12.57;;;2.50;99.90;;;;;;10458007;28;20222;-82
2021/11/24 08:02:27;;;;;;;13.63;12.33;;;2.60;99.90;;;;;;10448858;28;20260;-82
2021/11/24 08:07:31;;;;;;;14.13;12.63;;;2.80;99.90;;;;;;10449733;28;20692;-82
2021/11/24 08:12:35;;;;;;;14.57;13.13;;;3.00;99.90;;;;;;10453785;28;20229;-82
2021/11/24 08:17:37;;;;;;;14.83;13.27;;;3.20;99.90;;;;;;10453639;28;20858;-82
2021/11/24 08:22:39;;;;;;;15.97;14.37;;;3.40;99.90;;;;;;10472036;28;20237;-82
2021/11/24 08:27:43;;;;;;;15.07;13.60;;;3.60;99.90;;;;;;10456334;28;20209;-82
2021/11/24 08:32:45;;;;;;;15.47;14.03;;;3.70;99.90;;;;;;10453668;28;20229;-82
2021/11/24 08:37:48;;;;;;;15.30;13.90;;;3.80;99.90;;;;;;10469460;28;20712;-82
2021/11/24 08:42:51;;;;;;;17.33;15.53;;;3.90;99.90;;;;;;10469350;28;20705;-82
2021/11/24 08:47:54;;;;;;;16.90;15.30;;;4.10;99.90;;;;;;10469397;28;20300;-82
2021/11/24 08:52:56;;;;;;;18.57;16.67;;;4.20;99.90;;;;;;10469544;28;20245;-82
2021/11/24 08:58:00;;;;;;;19.10;17.17;;;4.40;99.90;;;;;;10471618;28;20660;-82
2021/11/24 09:03:02;;;;;;;19.07;17.03;;;4.70;99.90;;;;;;10468990;28;20233;-82
2021/11/24 09:08:05;;;;;;;20.70;18.47;;;4.80;99.90;;;;;;10469342;28;20205;-82
2021/11/24 09:13:09;;;;;;;19.43;17.30;;;5.00;99.90;;;;;;10450584;28;20248;-82
2021/11/24 09:18:11;;;;;;;21.30;19.20;;;5.20;99.90;;;;;;10469319;28;20225;-82
2021/11/24 09:23:14;;;;;;;19.17;17.27;;;5.30;99.90;;;;;;10470352;28;20252;-82
2021/11/24 09:28:19;;;;;;;21.10;18.90;;;5.30;99.90;;;;;;10454363;28;20198;-82
2021/11/24 09:33:22;;;;;;;20.20;18.20;;;5.40;99.90;;;;;;10471781;28;20323;-83
2021/11/24 09:38:24;;;;;;;21.43;19.33;;;5.40;99.90;;;;;;10472135;28;20236;-82
2021/11/24 09:43:28;;;;;;;20.00;17.90;;;5.40;99.90;;;;;;10470289;28;20222;-83
2021/11/24 09:48:31;;;;;;;20.80;18.70;;;5.50;99.90;;;;;;10474731;28;20270;-83
2021/11/24 09:53:34;;;;;;;20.30;18.10;;;5.50;99.90;;;;;;10471232;28;20217;-83
2021/11/24 09:58:37;;;;;;;19.20;17.30;;;5.50;99.90;;;;;;10456671;28;20225;-82
2021/11/24 10:03:39;;;;;;;19.40;17.50;;;5.40;99.90;;;;;;10454847;28;20227;-83
2021/11/24 10:08:42;;;;;;;17.77;16.07;;;5.40;99.90;;;;;;10471339;28;20277;-82
2021/11/24 10:13:48;;;;;;;18.67;16.70;;;5.40;99.90;;;;;;10450648;28;20278;-82
2021/11/24 10:18:59;;;;;;;18.17;16.40;;;5.40;99.90;;;;;;10484413;28;20237;-82
2021/11/24 10:24:03;;;;;;;18.53;16.73;;;5.50;99.90;;;;;;10451804;28;20237;-83
2021/11/24 10:29:08;;;;;;;17.23;15.60;;;5.60;99.90;;;;;;10453922;28;20201;-82
2021/11/24 10:34:18;;;;;;;17.53;15.90;;;5.60;99.90;;;;;;10471866;28;20240;-82
2021/11/24 10:39:21;;;;;;;17.37;15.67;;;5.80;99.90;;;;;;10478424;28;20220;-83
2021/11/24 10:44:30;;;;;;;18.57;15.77;;;5.90;99.90;;;;;;10472810;28;20300;-83
2021/11/24 10:49:36;;;;;;;16.77;15.13;;;6.10;99.90;;;;;;10471320;28;20225;-83
2021/11/24 10:54:38;;;;;;;18.57;16.77;;;6.10;99.90;;;;;;10473803;28;20276;-83
2021/11/24 10:59:44;;;;;;;19.13;17.30;;;6.20;99.90;;;;;;10480773;28;20335;-82
2021/11/24 11:05:11;;;;;;;20.47;18.40;;;6.30;99.90;;;;;;10476608;28;20732;-82
2021/11/24 11:10:19;;;;;;;17.70;16.03;;;6.40;99.80;;;;;;10468927;28;20683;-82
2021/11/24 11:15:29;;;;;;;19.50;17.53;;;6.40;99.90;;;;;;10467244;28;20213;-82
2021/11/24 11:20:33;;;;;;;18.53;16.73;;;6.30;99.90;;;;;;10465987;28;20229;-82
2021/11/24 11:25:35;;;;;;;20.43;17.30;;;6.30;98.70;;;;;;10453406;28;20665;-83
2021/11/24 11:30:43;;;;;;;19.93;17.80;;;6.10;99.20;;;;;;10468606;28;20227;-82
2021/11/24 11:35:46;;;;;;;17.47;15.73;;;6.10;98.30;;;;;;10475633;28;20225;-82
2021/11/24 11:40:51;;;;;;;19.70;17.77;;;6.00;99.90;;;;;;10454091;28;20228;-81
2021/11/24 11:45:55;;;;;;;17.40;15.70;;;6.00;98.20;;;;;;10473199;28;20733;-82
2021/11/24 11:50:59;;;;;;;17.63;15.80;;;6.00;97.80;;;;;;10460812;28;20492;-82
2021/11/24 11:56:18;;;;;;;16.00;14.47;;;5.90;99.70;;;;;;10468949;28;20241;-82
2021/11/24 12:01:24;;;;;;;17.20;15.50;;;5.90;99.60;;;;;;10468905;28;20263;-82
2021/11/24 12:06:28;;;;;;;19.10;15.87;;;6.00;98.20;;;;;;10453498;28;21093;-82
2021/11/24 12:12:05;;;;;;;17.43;15.73;;;5.90;98.60;;;;;;10470644;28;20264;-82
2021/11/24 12:17:37;;;;;;;17.70;15.90;;;6.00;98.70;;;;;;10495544;28;20284;-82
2021/11/24 12:22:53;;;;;;;18.40;16.50;;;6.00;98.80;;;;;;10487082;28;20232;-82
2021/11/24 12:28:07;;;;;;;16.10;14.60;;;5.90;97.90;;;;;;10469178;28;20272;-83
2021/11/24 12:33:13;;;;;;;17.23;15.43;;;5.90;98.00;;;;;;10462859;28;20217;-83
2021/11/24 12:38:16;;;;;;;16.83;15.10;;;5.80;99.10;;;;;;10446986;28;20228;-82
2021/11/24 12:43:20;;;;;;;17.33;15.63;;;5.90;99.00;;;;;;10464760;28;20583;-83
2021/11/24 12:48:31;;;;;;;16.83;15.13;;;6.00;97.90;;;;;;10448918;28;20574;-82
2021/11/24 12:53:36;;;;;;;18.70;16.33;;;6.00;97.50;;;;;;10460695;28;20252;-82
2021/11/24 12:58:39;;;;;;;18.60;16.63;;;6.00;98.60;;;;;;10444729;28;20375;-82
2021/11/24 13:03:43;;;;;;;19.20;17.30;;;6.00;99.20;;;;;;10464116;28;20245;-82
2021/11/24 13:09:00;;;;;;;18.17;16.17;;;6.00;99.40;;;;;;10463405;28;20568;-83
2021/11/24 13:14:02;;;;;;;18.93;16.93;;;6.10;99.80;;;;;;10462669;28;20319;-82
2021/11/24 13:19:06;;;;;;;19.50;17.40;;;6.20;99.90;;;;;;10466813;28;20302;-83
2021/11/24 13:24:09;;;;;;;19.37;17.40;;;6.20;99.90;;;;;;10456016;28;20267;-83
2021/11/24 13:29:17;;;;;;;20.07;18.00;;;6.30;99.90;;;;;;10465735;28;20201;-83
2021/11/24 13:34:27;;;;;;;21.27;18.77;;;6.40;98.40;;;;;;10459984;28;20252;-83
2021/11/24 13:39:32;;;;;;;21.13;18.80;;;6.30;98.80;;;;;;10449786;28;20229;-83
2021/11/24 13:44:34;;;;;;;19.33;17.33;;;6.30;98.30;;;;;;10469447;28;20233;-83
2021/11/24 13:49:43;;;;;;;21.03;18.80;;;6.30;98.00;;;;;;10470817;28;20213;-83
2021/11/24 13:54:47;;;;;;;21.17;18.87;;;6.20;97.30;;;;;;10453232;28;20209;-83
2021/11/24 14:00:00;;;;;;;21.40;19.10;;;6.20;99.10;;;;;;10469921;28;20232;-83
2021/11/24 14:05:10;;;;;;;22.90;20.33;;;6.20;98.10;;;;;;10455316;28;20217;-83
2021/11/24 14:10:16;;;;;;;20.93;18.73;;;6.10;98.20;;;;;;10459251;28;20301;-82
2021/11/24 14:15:20;;;;;;;23.80;19.73;;;6.10;98.10;;;;;;10468772;28;20691;-83
2021/11/24 14:20:33;;;;;;;21.43;19.17;;;6.00;98.10;;;;;;10454564;28;20237;-83
2021/11/24 14:25:38;;;;;;;21.40;19.20;;;5.90;98.40;;;;;;10454550;28;20273;-83
2021/11/24 14:30:42;;;;;;;22.17;19.77;;;5.90;98.10;;;;;;10453422;28;20221;-83
2021/11/24 14:35:46;;;;;;;20.87;18.67;;;5.80;99.30;;;;;;10481737;28;20264;-82
2021/11/24 14:40:49;;;;;;;22.33;19.93;;;5.80;97.90;;;;;;10474395;28;20275;-83
2021/11/24 14:45:52;;;;;;;21.80;19.50;;;5.80;98.90;;;;;;10469073;28;20267;-83
2021/11/24 14:50:55;;;;;;;21.57;19.27;;;5.70;98.20;;;;;;10468817;28;20221;-83
2021/11/24 14:55:58;;;;;;;22.17;19.87;;;5.70;98.30;;;;;;10462870;28;20209;-83
2021/11/24 15:01:01;;;;;;;25.00;22.40;;;5.60;98.40;;;;;;10450792;28;20229;-83
2021/11/24 15:06:05;;;;;;;23.70;20.63;;;5.60;98.80;;;;;;10469385;28;20201;-83
2021/11/24 15:11:07;;;;;;;23.50;20.97;;;5.60;99.00;;;;;;10453383;28;20229;-82
2021/11/24 15:16:12;;;;;;;22.90;20.33;;;5.50;98.90;;;;;;10455317;28;20278;-83
2021/11/24 15:21:16;;;;;;;21.67;19.47;;;5.40;99.20;;;;;;10450675;28;20320;-83
2021/11/24 15:26:18;;;;;;;19.57;17.50;;;5.40;98.40;;;;;;10449963;28;20201;-84
2021/11/24 15:31:22;;;;;;;20.30;18.00;;;5.20;98.50;;;;;;10458033;28;20327;-83
2021/11/24 15:36:26;;;;;;;18.97;17.03;;;5.10;98.80;;;;;;10442074;28;20308;-83
2021/11/24 15:41:29;;;;;;;21.43;17.77;;;5.10;98.60;;;;;;10463053;28;20249;-82
2021/11/24 15:46:32;;;;;;;21.80;19.40;;;5.00;99.50;;;;;;10460562;28;20236;-83
2021/11/24 15:51:35;;;;;;;19.90;17.77;;;4.90;99.00;;;;;;10462541;28;20311;-82
2021/11/24 15:56:38;;;;;;;21.83;19.20;;;4.80;99.20;;;;;;10462190;28;20280;-83
2021/11/24 16:01:40;;;;;;;21.63;18.73;;;4.80;98.90;;;;;;10460912;28;20257;-83
2021/11/24 16:06:44;;;;;;;21.00;18.70;;;4.70;99.40;;;;;;10461743;28;20197;-83
2021/11/24 16:11:46;;;;;;;21.40;18.00;;;4.60;99.90;;;;;;10445468;28;20593;-82
2021/11/24 16:16:49;;;;;;;22.63;17.77;;;4.60;99.40;;;;;;10460672;28;20268;-83
2021/11/24 16:21:52;;;;;;;21.33;19.13;;;4.70;99.90;;;;;;10466829;28;20786;-83
2021/11/24 16:26:55;;;;;;;21.47;18.60;;;4.70;99.70;;;;;;10466782;28;20622;-83
2021/11/24 16:31:58;;;;;;;22.83;18.30;;;4.70;99.40;;;;;;10462245;28;20225;-83
2021/11/24 17:22:20;;;;;;;25.20;22.37;;;5.20;99.70;;;;;;10555560;28;20215;-85
2021/11/24 17:27:22;;;;;;;29.30;22.60;;;5.30;99.80;;;;;;10541146;28;20230;-81
2021/11/24 17:32:27;;;;;;;28.90;21.80;;;5.30;99.30;;;;;;10553510;28;20219;-82
2021/11/24 17:37:30;;;;;;;26.20;22.83;;;5.30;99.30;;;;;;10538379;28;20222;-82
2021/11/24 17:42:32;;;;;;;31.27;24.47;;;5.30;99.60;;;;;;10553553;28;20311;-81
2021/11/24 17:47:35;;;;;;;26.03;21.37;;;5.30;99.90;;;;;;10570875;28;20214;-81
2021/11/24 17:52:40;;;;;;;27.43;23.27;;;5.40;99.90;;;;;;10560244;28;20223;-82
2021/11/24 17:57:44;;;;;;;28.73;22.37;;;5.50;99.60;;;;;;10536459;28;20236;-82
2021/11/24 18:02:46;;;;;;;27.13;22.20;;;5.40;99.60;;;;;;10552799;28;20266;-82
2021/11/24 18:07:49;;;;;;;24.97;20.90;;;5.50;99.80;;;;;;10569800;28;20200;-82
2021/11/24 18:12:52;;;;;;;28.53;24.87;;;5.50;99.90;;;;;;10539679;28;20220;-82
2021/11/24 18:17:54;;;;;;;30.03;24.73;;;5.60;99.50;;;;;;10529626;28;20223;-80
2021/11/24 18:22:58;;;;;;;33.80;25.90;;;5.50;98.40;;;;;;10523885;28;20285;-80
2021/11/24 18:28:00;;;;;;;29.03;23.33;;;5.30;98.80;;;;;;10530060;28;20210;-81
2021/11/24 18:33:03;;;;;;;25.23;22.07;;;5.20;99.30;;;;;;10526615;28;20267;-81
2021/11/24 18:38:16;;;;;;;27.57;22.20;;;5.20;99.70;;;;;;10544486;28;20294;-81
2021/11/24 18:43:19;;;;;;;28.47;21.80;;;5.20;99.10;;;;;;10543103;28;20250;-81
2021/11/24 18:48:21;;;;;;;27.47;23.13;;;5.10;98.70;;;;;;10527143;28;20203;-82
2021/11/24 18:53:24;;;;;;;36.47;28.40;;;5.10;99.70;;;;;;10515471;28;20715;-82
2021/11/24 18:58:28;;;;;;;29.17;21.33;;;5.10;99.90;;;;;;10525367;28;20234;-80
2021/11/24 19:03:30;;;;;;;24.10;20.40;;;5.20;99.90;;;;;;10541412;28;20222;-81
2021/11/24 19:08:34;;;;;;;26.30;22.00;;;5.30;99.80;;;;;;10530367;28;20719;-81
2021/11/24 19:13:36;;;;;;;26.27;20.70;;;5.40;99.30;;;;;;10542828;28;20281;-82
2021/11/24 19:18:39;;;;;;;24.70;20.70;;;5.30;99.50;;;;;;10502829;28;20223;-82
2021/11/24 19:23:43;;;;;;;28.60;21.00;;;5.30;99.40;;;;;;10509923;28;20247;-81
2021/11/24 19:28:45;;;;;;;25.47;20.90;;;5.30;99.80;;;;;;10546845;28;20226;-81
2021/11/24 19:33:47;;;;;;;25.83;21.90;;;5.30;99.90;;;;;;10502511;28;20212;-81
2021/11/24 19:38:51;;;;;;;23.13;20.30;;;5.30;99.90;;;;;;10529070;28;20224;-82
2021/11/24 19:43:53;;;;;;;23.77;19.80;;;5.30;99.70;;;;;;10515460;28;20212;-81
2021/11/24 19:48:55;;;;;;;25.47;20.80;;;5.40;99.40;;;;;;10528887;28;20207;-80
2021/11/24 19:54:00;;;;;;;20.73;18.50;;;5.40;99.70;;;;;;10521145;28;20245;-81
2021/11/24 19:59:03;;;;;;;21.17;18.90;;;5.40;99.60;;;;;;10533491;28;20220;-81
2021/11/24 20:04:05;;;;;;;23.17;18.87;;;5.40;99.40;;;;;;10557225;28;20203;-81
2021/11/24 20:09:09;;;;;;;18.57;16.63;;;5.40;99.10;;;;;;10534311;28;20230;-82
2021/11/24 20:14:13;;;;;;;20.73;17.13;;;5.40;98.20;;;;;;10540507;28;20249;-80
2021/11/24 20:19:16;;;;;;;18.50;16.60;;;5.20;98.80;;;;;;10516467;28;20238;-82
2021/11/24 20:24:20;;;;;;;20.20;16.83;;;5.10;99.50;;;;;;10532893;28;20224;-82
2021/11/24 20:29:23;;;;;;;19.80;17.70;;;5.20;99.60;;;;;;10537111;28;20226;-82
2021/11/24 20:34:26;;;;;;;17.90;16.00;;;5.20;99.90;;;;;;10537859;28;20562;-83
2021/11/24 20:39:32;;;;;;;19.33;17.33;;;5.30;99.90;;;;;;10545540;28;20296;-84
2021/11/24 20:44:34;;;;;;;18.60;16.43;;;5.40;99.70;;;;;;10517640;28;20207;-83
2021/11/24 20:49:37;;;;;;;20.93;18.03;;;5.40;99.50;;;;;;10517848;28;20220;-83
2021/11/24 20:54:50;;;;;;;19.33;16.83;;;5.40;99.90;;;;;;10516723;28;20239;-83
2021/11/24 20:59:54;;;;;;;18.93;16.93;;;5.40;99.80;;;;;;10508606;28;20231;-83
2021/11/24 21:04:56;;;;;;;18.33;15.73;;;5.40;99.00;;;;;;10515827;28;20758;-83
2021/11/24 21:10:01;;;;;;;20.93;18.83;;;5.40;99.30;;;;;;10508926;28;20325;-83
2021/11/24 21:15:03;;;;;;;20.00;17.97;;;5.40;99.40;;;;;;10554621;28;20223;-82
2021/11/24 21:20:08;;;;;;;17.60;15.63;;;5.40;98.80;;;;;;10512157;28;20699;-84
2021/11/24 21:25:14;;;;;;;18.47;16.57;;;5.40;99.30;;;;;;10514841;28;20317;-85
2021/11/24 21:30:20;;;;;;;18.37;16.17;;;5.40;99.90;;;;;;10527879;28;20216;-82
2021/11/24 21:35:23;;;;;;;17.70;15.80;;;5.40;99.90;;;;;;10508043;28;20764;-83
2021/11/24 21:40:30;;;;;;;19.03;16.83;;;5.40;99.90;;;;;;10513747;28;20301;-82
2021/11/24 21:45:33;;;;;;;20.50;16.40;;;5.40;99.70;;;;;;10546757;28;20208;-81
2021/11/24 21:51:01;;;;;;;20.93;17.47;;;5.40;99.30;;;;;;10528224;28;20242;-84
2021/11/24 21:56:06;;;;;;;18.57;16.70;;;5.50;98.90;;;;;;10541717;28;20601;-84
2021/11/24 22:01:16;;;;;;;17.70;15.73;;;5.30;99.90;;;;;;10530690;28;20255;-81
2021/11/24 22:06:19;;;;;;;17.30;15.40;;;5.30;99.80;;;;;;10532684;28;20269;-81
2021/11/24 22:11:36;;;;;;;18.17;16.27;;;5.30;99.90;;;;;;10535199;28;20220;-81
2021/11/24 22:16:57;;;;;;;19.20;17.20;;;5.40;99.90;;;;;;10545362;28;20565;-83
2021/11/24 22:22:28;;;;;;;17.30;15.50;;;5.40;99.90;;;;;;10536390;28;20719;-81
2021/11/24 22:27:35;;;;;;;18.70;16.77;;;5.40;99.90;;;;;;10540426;28;20192;-82
2021/11/24 22:32:38;;;;;;;18.20;16.20;;;5.50;99.90;;;;;;10528518;28;20215;-84
2021/11/24 22:37:41;;;;;;;17.03;15.30;;;5.50;99.90;;;;;;10544016;28;20208;-81
2021/11/24 22:42:47;;;;;;;19.50;16.50;;;5.60;99.90;;;;;;10540449;28;20220;-81
2021/11/24 22:47:50;;;;;;;19.00;16.40;;;5.60;99.90;;;;;;10550911;28;20192;-83
2021/11/24 22:52:55;;;;;;;20.53;17.10;;;5.50;99.60;;;;;;10507990;28;20258;-84
2021/11/24 22:57:58;;;;;;;18.07;15.90;;;5.50;99.90;;;;;;10518554;28;20220;-84
2021/11/24 23:03:00;;;;;;;19.00;16.40;;;5.50;99.90;;;;;;10507559;28;20703;-84
2021/11/24 23:08:02;;;;;;;18.67;16.50;;;5.50;99.90;;;;;;10543669;28;20228;-81
2021/11/24 23:13:07;;;;;;;19.57;16.97;;;5.60;99.90;;;;;;10533128;28;20238;-81
2021/11/24 23:18:10;;;;;;;18.53;16.53;;;5.60;99.90;;;;;;10557670;28;20259;-83
2021/11/24 23:23:14;;;;;;;20.50;17.80;;;5.60;99.60;;;;;;10524203;28;20255;-81
2021/11/24 23:28:21;;;;;;;22.03;17.80;;;5.50;99.90;;;;;;10539307;28;20203;-82
2021/11/24 23:33:27;;;;;;;19.77;17.30;;;5.50;99.90;;;;;;10536407;28;20222;-81
2021/11/24 23:38:31;;;;;;;19.03;16.33;;;5.50;99.90;;;;;;10542903;28;20561;-81
2021/11/24 23:43:35;;;;;;;19.00;16.33;;;5.50;99.90;;;;;;10539586;28;20247;-83
2021/11/24 23:48:37;;;;;;;19.77;16.33;;;5.50;99.90;;;;;;10548515;28;20271;-83
2021/11/24 23:53:45;;;;;;;20.30;17.50;;;5.50;99.90;;;;;;10549551;28;20255;-82
2021/11/24 23:58:49;;;;;;;20.83;17.87;;;5.60;99.90;;;;;;10526263;28;20222;-84
